Date,TemperatureHighF,TemperatureAvgF,TemperatureLowF,DewpointHighF,DewpointAvgF,DewpointLowF,HumidityHigh,HumidityAvg,HumidityLow,PressureMaxIn,PressureMinIn,WindSpeedMaxMPH,WindSpeedAvgMPH,GustSpeedMaxMPH,PrecipitationSumIn
2013-1-1,37.0,33.6,23.2,26.6,20.2,7.5,69,58,46,29.89,29.69,3,1,7,0.02
2013-1-2,30.9,24.7,18.3,15.2,10.8,6.8,67,55,44,30.03,29.85,3,1,10,0.00
2013-1-3,32.7,23.8,11.6,17.1,10.5,1.4,66,57,38,30.08,29.91,2,0,5,0.00
2013-1-4,38.5,31.9,27.5,22.1,19.1,16.7,69,59,45,29.93,29.77,4,1,10,0.01
2013-1-5,42.9,33.6,26.1,22.3,19.8,16.0,77,58,40,30.13,29.86,3,1,11,0.04
2013-1-6,45.7,35.5,29.0,29.6,25.0,21.4,81,66,45,30.08,29.79,4,0,4,0.02
2013-1-7,45.5,34.8,27.0,31.3,23.6,17.5,81,66,35,30.26,29.91,2,0,5,0.00
2013-1-8,48.0,35.5,25.7,28.7,24.6,19.5,84,66,45,30.30,30.17,5,1,8,0.00
2013-1-9,45.4,36.2,26.4,34.8,28.7,22.8,87,75,61,30.26,30.01,3,0,7,0.00
2013-1-10,41.8,41.2,39.9,29.5,26.1,22.7,65,55,47,30.18,30.09,3,1,7,0.00
2013-1-11,42.6,39.3,37.2,40.4,36.9,34.0,92,91,88,30.12,29.98,0,0,0,0.28
2013-1-12,44.8,42.5,40.1,42.9,40.3,38.0,93,92,90,30.05,29.96,0,0,1,0.04
2013-1-13,46.2,43.7,41.5,44.3,41.8,39.6,94,93,93,30.03,29.89,1,0,3,0.02
2013-1-14,54.4,47.0,35.0,52.2,40.6,24.7,94,80,57,30.17,29.76,2,0,5,0.09
2013-1-15,34.1,33.1,32.7,30.6,29.4,28.9,87,86,83,30.17,30.11,1,0,2,0.07
2013-1-17,34.9,32.7,31.0,24.3,21.2,18.7,67,62,60,29.95,29.88,1,0,3,0.19
2013-1-18,30.7,25.4,20.0,18.8,7.2,0.3,62,46,28,30.34,29.90,3,1,7,0.00
2013-1-19,46.7,37.5,27.0,26.1,19.6,8.0,63,49,39,30.26,29.79,7,3,14,0.29
2013-1-20,52.0,40.7,27.5,27.4,20.9,7.9,64,47,23,29.88,29.52,4,2,10,0.02
2013-1-21,29.0,26.1,21.3,17.2,11.2,7.4,71,53,40,29.97,29.70,4,0,6,0.00
2013-1-22,24.1,18.0,11.1,16.1,-2.0,-12.8,73,42,27,30.06,29.70,3,2,8,0.00
2013-1-23,20.0,12.7,8.3,-0.8,-6.4,-10.2,60,42,27,30.11,29.98,3,1,6,0.00
2013-1-24,23.8,13.7,6.5,1.1,-3.3,-7.1,74,48,27,30.25,30.02,4,1,19,0.00
2013-1-25,22.1,16.0,11.1,14.0,2.9,-3.6,83,57,34,30.28,29.94,2,0,3,0.00
2013-1-26,28.8,17.7,9.2,9.3,5.4,2.0,83,61,34,30.23,29.92,3,1,14,0.00
2013-1-27,35.0,23.1,14.0,11.5,8.2,4.3,74,54,30,30.39,30.23,1,0,10,0.01
2013-1-28,32.5,28.0,19.2,30.2,21.0,10.6,91,76,55,30.36,29.88,5,0,6,0.00
2013-1-29,44.2,36.6,32.4,41.0,33.3,30.1,93,88,72,30.02,29.87,2,0,5,0.28
2013-1-30,53.8,46.7,36.9,51.8,44.6,34.8,94,92,89,29.97,29.25,3,1,7,0.08
2013-1-31,57.5,43.5,27.6,54.6,28.0,8.0,93,57,29,29.63,28.91,9,4,19,0.70
2013-2-1,31.2,26.3,21.4,12.7,7.3,0.9,64,45,30,30.08,29.63,4,2,11,0.00
2013-2-2,28.5,22.3,16.9,17.7,8.0,-0.8,84,56,29,30.18,29.94,6,1,7,0.00
2013-2-3,31.5,23.2,15.2,17.8,14.6,11.2,87,71,46,29.93,29.63,4,0,4,0.02
2013-2-4,30.4,25.3,19.9,18.8,8.5,3.7,77,50,33,29.84,29.67,3,1,11,0.00
2013-2-5,29.0,26.5,23.6,23.4,19.1,8.7,85,74,48,29.86,29.78,1,0,3,0.00
2013-2-6,38.6,30.7,23.3,24.5,19.1,6.8,89,65,38,30.17,29.80,2,0,8,0.03
2013-2-7,31.3,26.4,18.9,19.3,8.5,2.9,68,47,33,30.39,30.23,1,0,3,0.00
2013-2-8,31.9,29.8,24.8,28.7,25.2,19.5,91,83,68,30.22,29.52,1,0,3,0.00
2013-2-9,31.6,16.0,23.6,22.8,-39.6,-99.9,89,43,64,30.20,29.62,8,-363,8,0.00
2013-2-10,33.5,7.6,11.4,12.7,-68.7,-99.9,62,17,28,30.33,30.17,2,-569,3,0.04
2013-2-11,40.8,4.5,32.7,38.7,-86.9,-99.9,93,9,89,30.19,29.53,1,-846,1,0.24
2013-2-12,44.5,36.7,32.5,33.4,16.8,-99.9,93,62,49,29.82,29.59,11,-13,11,0.11
2013-2-13,34.7,32.5,30.6,29.8,24.1,19.7,90,72,59,29.82,29.58,3,0,3,0.00
2013-2-14,43.6,28.2,24.4,30.9,-22.1,-99.9,91,49,43,29.87,29.58,2,-135,2,0.08
2013-2-15,54.5,36.0,30.1,35.2,16.6,-99.9,84,61,36,29.89,29.74,7,-69,7,0.00
2013-2-16,37.8,32.5,28.4,31.7,25.8,10.7,89,77,46,29.85,29.61,4,1,7,0.05
2013-2-17,31.3,24.3,14.9,10.9,2.2,-5.6,49,39,26,29.84,29.51,21,2,21,0.00
2013-2-18,34.9,23.4,14.6,12.8,4.2,-0.2,60,44,26,30.09,29.85,10,1,10,0.00
2013-2-19,44.5,35.5,23.8,39.4,25.8,8.8,92,69,40,30.08,29.55,5,1,8,0.22
2013-2-20,35.5,30.8,23.6,25.6,15.3,6.6,67,53,34,29.81,29.58,5,2,9,0.00
2013-2-23,39.5,36.5,34.4,36.8,33.7,30.9,92,90,85,30.01,29.70,1,0,3,0.08
2013-2-24,42.1,35.5,30.4,36.2,30.1,21.4,92,81,58,29.84,29.62,3,0,3,0.01
2013-2-25,45.8,34.5,24.4,32.1,23.3,17.3,84,65,42,30.11,29.84,3,0,6,0.00
2013-2-26,41.5,34.9,27.6,31.2,26.7,22.4,88,72,56,30.18,29.81,2,0,5,0.12
2013-2-27,44.6,40.2,34.1,41.3,37.4,30.6,92,90,87,29.81,29.37,4,1,12,0.62
2013-2-28,49.8,40.3,35.6,41.4,33.0,27.6,92,76,53,29.50,29.41,2,0,3,0.00
2013-3-1,45.7,36.8,29.7,38.6,27.8,22.5,91,72,46,29.65,29.48,3,0,6,0.02
2013-3-2,39.1,34.1,29.3,24.9,22.1,20.4,82,62,51,29.65,29.56,3,1,6,0.00
2013-3-3,41.6,31.4,27.2,23.2,17.4,14.3,77,57,36,29.62,29.50,3,1,6,0.00
2013-3-4,40.8,31.6,25.8,19.9,13.8,-99.9,68,54,40,29.76,29.60,3,2,11,0.00
2013-3-5,47.6,36.3,27.8,25.6,21.9,17.6,70,57,38,29.89,29.76,2,1,7,0.00
2013-3-6,40.8,38.0,34.1,35.0,28.0,24.2,82,67,59,29.86,29.75,5,2,8,0.01
2013-3-7,37.0,33.9,30.9,30.1,27.3,23.3,92,77,61,29.96,29.81,5,2,8,0.03
2013-3-8,39.3,37.2,30.6,28.6,26.0,22.2,91,65,53,30.08,29.92,3,2,10,0.20
2013-3-9,55.0,40.5,31.8,25.6,21.1,17.3,70,48,26,30.19,30.07,3,1,8,0.16
2013-3-10,50.8,37.5,26.3,33.5,28.6,21.7,90,72,46,30.27,30.15,3,1,8,0.00
2013-3-11,52.8,44.0,35.6,45.5,37.7,30.9,87,79,61,30.19,29.96,4,1,7,0.00
2013-3-12,54.4,49.8,40.2,51.3,45.7,34.5,91,86,74,29.97,29.54,7,3,13,0.94
2013-3-13,49.4,44.2,36.5,35.0,25.8,17.4,86,51,30,29.72,29.64,2,1,7,0.00
2013-3-16,35.9,32.3,30.7,27.2,22.4,15.6,86,69,44,29.78,29.66,2,0,4,0.01
2013-3-17,37.5,33.2,28.2,16.7,11.6,7.1,54,41,28,30.19,29.98,3,1,4,0.00
2013-3-18,34.3,28.3,21.3,28.6,13.3,3.6,91,56,34,30.30,29.93,2,0,5,0.00
2013-3-19,42.1,34.4,31.2,34.8,30.6,24.7,90,86,69,29.92,29.56,1,0,3,0.47
2013-3-20,42.6,34.9,27.5,24.7,17.6,12.9,71,51,30,29.75,29.64,5,1,6,0.10
2013-3-21,39.2,32.7,29.5,24.6,16.1,8.2,78,52,28,29.71,29.48,3,0,6,0.02
2013-3-22,40.3,32.7,25.0,20.8,15.8,9.0,71,50,35,29.74,29.60,3,1,7,0.01
2013-3-23,45.5,36.6,30.1,21.2,17.7,13.6,63,47,30,29.79,29.65,3,1,10,0.01
2013-3-24,47.7,36.4,26.0,23.4,19.4,14.5,74,52,31,29.82,29.57,3,0,5,0.00
2013-3-25,42.9,38.2,33.4,33.9,25.4,20.8,78,60,42,29.59,29.33,4,0,5,0.00
2013-3-26,50.1,40.1,31.5,35.0,25.0,19.6,80,57,34,29.73,29.46,3,0,5,0.00
2013-3-28,44.5,41.6,38.0,29.6,27.8,24.7,67,58,54,29.97,29.92,1,0,2,0.00
2013-3-29,54.8,43.2,33.8,31.2,26.2,21.5,73,53,30,30.01,29.91,3,1,7,0.00
2013-3-30,58.1,43.2,30.3,44.2,23.2,9.1,84,51,20,30.04,29.91,3,0,7,0.00
2013-3-31,53.8,43.5,31.5,44.6,31.2,9.0,90,64,31,30.00,29.55,6,1,12,0.09
2013-4-1,61.2,45.6,34.7,43.8,34.3,9.7,92,68,31,29.77,29.46,6,1,8,0.01
2013-4-2,43.8,35.4,28.5,15.6,10.3,5.6,58,36,21,29.95,29.77,4,1,8,0.00
2013-4-3,46.2,36.0,28.2,15.0,10.4,3.7,56,35,21,30.16,29.94,4,2,14,0.00
2013-4-4,53.3,38.5,26.6,32.8,17.8,7.7,69,45,24,30.26,29.95,5,1,10,0.00
2013-4-5,61.8,47.3,38.8,32.8,21.5,11.7,69,39,19,29.95,29.58,7,1,7,0.00
2013-4-6,52.5,40.4,32.7,27.3,12.0,0.7,67,34,13,30.18,29.86,11,1,11,0.00
2013-4-7,54.2,45.3,33.4,42.3,31.9,20.6,81,61,35,30.18,29.85,10,2,14,0.00
2013-4-8,73.5,55.6,40.5,64.9,41.6,31.8,90,64,24,29.95,29.85,5,0,7,0.00
2013-4-9,79.0,63.4,48.2,61.8,42.0,25.4,86,52,21,29.87,29.76,5,1,10,0.00
2013-4-10,73.2,60.1,49.8,53.3,47.2,36.8,90,65,38,29.83,29.67,3,0,6,0.42
2013-4-11,62.6,54.0,45.1,55.0,44.9,37.0,92,73,49,29.93,29.66,2,0,8,0.01
2013-4-12,45.1,41.6,38.8,38.6,35.4,26.8,90,79,58,29.92,29.61,8,1,8,0.32
2013-4-13,56.5,46.4,36.8,38.2,33.8,29.2,90,65,39,29.83,29.64,2,0,7,0.05
2013-4-14,55.3,49.0,42.3,34.3,27.7,20.3,61,45,28,30.09,29.83,5,1,7,0.00
2013-4-15,57.0,47.0,36.3,38.1,29.5,24.8,71,52,34,30.25,30.10,5,1,7,0.00
2013-4-16,61.5,52.6,42.6,50.7,43.7,33.7,82,72,60,30.25,29.98,6,2,10,0.00
2013-4-17,70.1,59.5,48.8,52.8,38.9,26.6,86,50,24,30.15,29.98,3,1,6,0.00
2013-4-18,59.2,51.9,45.1,46.2,38.9,32.5,84,63,39,30.22,30.02,6,1,10,0.00
2013-4-20,59.9,53.7,43.3,30.8,24.3,16.2,42,32,25,30.15,29.81,6,1,10,0.15
2013-4-21,55.0,43.1,33.1,29.1,20.3,14.4,64,41,22,30.49,30.17,10,1,10,0.00
2013-4-22,51.9,41.0,34.3,35.2,28.4,23.6,80,62,36,30.55,30.49,3,0,10,0.00
2013-4-24,51.4,51.0,50.7,47.7,46.8,46.1,87,86,84,29.74,29.72,1,0,3,0.00
2013-4-25,65.3,53.8,44.5,49.2,30.1,16.2,87,45,16,30.06,29.72,3,1,12,0.00
2013-4-29,55.6,53.9,51.1,48.1,45.6,41.8,86,74,63,30.12,30.06,2,1,4,0.02